createdAt,value
2022-12-08T00:00:18.826Z,1.27
2022-12-08T00:03:39.046Z,1.20
2022-12-08T00:07:03.041Z,1.21
2022-12-08T00:10:48.061Z,1.23
2022-12-08T00:13:52.302Z,1.25
2022-12-08T00:17:05.941Z,1.33
2022-12-08T00:20:09.491Z,1.39
2022-12-08T00:23:23.557Z,1.38
2022-12-08T00:26:39.650Z,1.31
2022-12-08T00:30:00.961Z,1.23
2022-12-08T00:33:17.602Z,1.23
2022-12-08T00:36:39.714Z,1.20
2022-12-08T00:40:03.002Z,1.28
2022-12-08T00:43:31.517Z,1.38
2022-12-08T00:46:54.679Z,1.46
2022-12-08T00:50:16.677Z,1.48
2022-12-08T00:53:38.537Z,1.42
2022-12-08T00:57:01.515Z,1.50
2022-12-08T01:00:23.605Z,1.56
2022-12-08T01:03:46.682Z,1.59
2022-12-08T01:07:09.447Z,1.60
2022-12-08T01:10:28.698Z,1.52
2022-12-08T01:13:49.551Z,1.47
2022-12-08T01:17:08.367Z,1.39
2022-12-08T01:20:31.510Z,1.32
2022-12-08T01:23:59.612Z,1.27
2022-12-08T01:27:23.581Z,1.14
2022-12-08T01:30:46.620Z,1.10
2022-12-08T01:34:10.016Z,1.09
2022-12-08T01:37:27.609Z,0.88
2022-12-08T01:40:30.431Z,0.98
2022-12-08T01:44:11.163Z,0.85
2022-12-08T01:47:33.522Z,0.80
2022-12-08T01:50:51.535Z,0.88
2022-12-08T01:54:03.524Z,0.87
2022-12-08T01:57:37.406Z,0.89
2022-12-08T02:00:58.583Z,0.59
2022-12-08T02:04:21.354Z,0.52
2022-12-08T02:07:46.653Z,0.78
2022-12-08T02:10:54.895Z,0.77
2022-12-08T02:14:00.817Z,0.66
2022-12-08T02:17:42.968Z,0.64
2022-12-08T02:20:55.806Z,0.58
2022-12-08T02:24:21.512Z,0.56
2022-12-08T02:28:11.449Z,0.47
2022-12-08T02:31:17.729Z,0.60
2022-12-08T02:35:38.290Z,0.64
2022-12-08T02:39:38.376Z,0.58
2022-12-08T02:42:56.080Z,0.40
2022-12-08T02:46:10.454Z,0.57
2022-12-08T02:49:33.435Z,0.82
2022-12-08T02:52:48.264Z,0.89
2022-12-08T02:56:05.379Z,0.92
2022-12-08T02:59:32.357Z,0.89
2022-12-08T03:03:01.406Z,0.92
2022-12-08T03:06:25.803Z,0.86
2022-12-08T03:09:41.875Z,0.85
2022-12-08T03:12:59.196Z,0.94
2022-12-08T03:16:13.637Z,0.96
2022-12-08T03:19:44.446Z,1.00
2022-12-08T03:22:49.525Z,1.07
2022-12-08T03:26:12.331Z,1.14
2022-12-08T03:29:38.159Z,1.19
2022-12-08T03:33:18.393Z,1.29
2022-12-08T03:36:29.323Z,1.31
2022-12-08T03:39:49.243Z,1.26
2022-12-08T03:43:09.176Z,1.40
2022-12-08T03:49:55.148Z,1.30
2022-12-08T03:53:18.076Z,1.30
2022-12-08T03:56:39.352Z,1.38
2022-12-08T03:59:55.297Z,1.37
2022-12-08T04:03:15.187Z,1.46
2022-12-08T04:06:39.202Z,1.50
2022-12-08T04:09:59.222Z,1.54
2022-12-08T04:13:15.339Z,1.53
2022-12-08T04:16:29.687Z,1.59
2022-12-08T04:19:33.326Z,1.52
2022-12-08T04:22:53.816Z,1.52
2022-12-08T04:26:14.629Z,1.65
2022-12-08T04:29:35.816Z,1.68
2022-12-08T04:32:47.494Z,1.74
2022-12-08T04:36:11.717Z,1.70
2022-12-08T04:39:35.934Z,1.64
2022-12-08T04:43:04.074Z,1.53
2022-12-08T04:46:30.910Z,1.48
2022-12-08T04:49:46.935Z,1.57
2022-12-08T04:53:01.782Z,1.66
2022-12-08T04:56:31.908Z,1.69
2022-12-08T04:59:52.068Z,1.60
2022-12-08T05:03:14.177Z,1.41
2022-12-08T05:06:50.208Z,1.66
2022-12-08T05:10:10.355Z,1.57
2022-12-08T05:13:26.014Z,1.65
2022-12-08T05:16:46.075Z,1.68
2022-12-08T05:20:07.241Z,1.73
2022-12-08T05:23:28.969Z,1.64
2022-12-08T05:26:58.163Z,1.70
2022-12-08T05:30:01.131Z,1.63
2022-12-08T05:33:05.285Z,1.74
2022-12-08T05:36:16.595Z,1.76
2022-12-08T05:39:39.836Z,1.78
2022-12-08T05:43:00.600Z,1.80
2022-12-08T05:46:04.003Z,1.84
2022-12-08T05:49:19.945Z,1.88
2022-12-08T05:52:29.665Z,1.88
2022-12-08T05:55:38.860Z,1.83
2022-12-08T05:59:01.808Z,1.91
2022-12-08T06:02:29.931Z,1.96
2022-12-08T06:05:45.018Z,1.94
2022-12-08T06:08:57.119Z,1.98
2022-12-08T06:12:13.589Z,1.89
2022-12-08T06:15:24.803Z,1.89
2022-12-08T06:18:32.580Z,1.95
2022-12-08T06:21:50.902Z,1.99
2022-12-08T06:25:10.229Z,2.06
2022-12-08T06:28:20.266Z,1.99
2022-12-08T06:31:37.118Z,2.01
2022-12-08T06:34:53.643Z,2.00
2022-12-08T06:38:33.716Z,2.03
2022-12-08T06:42:30.802Z,2.10
2022-12-08T06:45:52.829Z,2.19
2022-12-08T06:48:59.105Z,2.17
2022-12-08T06:57:30.068Z,2.11
2022-12-08T07:00:37.648Z,2.02
2022-12-08T07:03:55.714Z,2.09
2022-12-08T07:07:22.164Z,1.99
2022-12-08T07:10:42.880Z,1.97
2022-12-08T07:14:00.763Z,1.94
2022-12-08T07:17:12.204Z,1.88
2022-12-08T07:20:37.693Z,1.85
2022-12-08T07:24:10.558Z,1.88
2022-12-08T07:28:07.346Z,2.04
2022-12-08T07:31:28.067Z,1.92
2022-12-08T07:34:40.445Z,1.89
2022-12-08T07:39:04.082Z,2.05
2022-12-08T07:42:14.166Z,2.27
2022-12-08T07:45:28.345Z,2.28
2022-12-08T07:48:55.835Z,2.40
2022-12-08T07:53:37.896Z,2.62
2022-12-08T08:02:27.947Z,2.85
2022-12-08T08:06:05.466Z,2.94
2022-12-08T08:09:12.011Z,2.97
2022-12-08T08:12:41.810Z,3.00
2022-12-08T08:16:04.618Z,2.86
2022-12-08T08:19:11.795Z,2.83
2022-12-08T08:23:26.947Z,2.92
2022-12-08T08:26:47.213Z,2.96
2022-12-08T08:29:59.640Z,3.11
2022-12-08T08:33:23.307Z,3.20
2022-12-08T08:36:44.048Z,3.29
2022-12-08T08:40:18.049Z,3.22
2022-12-08T08:43:49.245Z,3.23
2022-12-08T08:47:45.162Z,3.40
2022-12-08T08:51:17.635Z,3.47
2022-12-08T08:59:50.972Z,3.64
2022-12-08T09:04:20.906Z,3.86
2022-12-08T09:08:10.469Z,4.04
2022-12-08T09:11:26.904Z,4.00
2022-12-08T09:14:47.803Z,3.83
2022-12-08T09:18:20.706Z,3.94
2022-12-08T09:22:49.273Z,4.08
2022-12-08T09:26:12.545Z,4.00
2022-12-08T09:29:48.736Z,3.99
2022-12-08T09:33:12.486Z,3.92
2022-12-08T09:37:26.862Z,4.00
2022-12-08T09:41:03.670Z,4.11
2022-12-08T09:44:35.490Z,4.25
2022-12-08T09:48:29.544Z,4.18
2022-12-08T09:52:29.199Z,4.37
2022-12-08T09:56:19.472Z,4.49
2022-12-08T09:59:44.128Z,4.56
2022-12-08T10:03:16.433Z,4.48
2022-12-08T10:07:14.637Z,4.57
2022-12-08T10:11:28.939Z,4.70
2022-12-08T10:15:29.629Z,4.98
2022-12-08T10:18:48.376Z,4.41
2022-12-08T10:22:00.267Z,4.48
2022-12-08T10:25:28.309Z,4.40
2022-12-08T10:29:31.347Z,4.64
2022-12-08T10:34:03.098Z,4.64
2022-12-08T10:38:19.327Z,4.76
2022-12-08T10:41:46.164Z,4.84
2022-12-08T10:51:32.284Z,5.24
2022-12-08T11:00:50.125Z,5.34
2022-12-08T11:04:29.469Z,5.33
2022-12-08T11:08:05.536Z,5.54
2022-12-08T11:12:06.155Z,5.23
2022-12-08T11:16:20.453Z,5.55
2022-12-08T11:20:03.891Z,5.82
2022-12-08T11:23:58.099Z,5.88
2022-12-08T11:33:27.407Z,5.82
2022-12-08T11:38:19.833Z,5.75
2022-12-08T11:42:17.322Z,5.63
2022-12-08T11:46:55.527Z,5.60
2022-12-08T11:51:40.869Z,5.39
2022-12-08T11:55:52.939Z,5.49
2022-12-08T11:59:49.239Z,5.53
2022-12-08T12:08:48.128Z,5.68
2022-12-08T12:12:52.972Z,5.66
2022-12-08T12:17:25.681Z,5.65
2022-12-08T12:21:47.265Z,5.55
2022-12-08T12:25:55.193Z,5.38
2022-12-08T12:29:38.797Z,5.39
2022-12-08T12:33:06.104Z,5.57
2022-12-08T12:36:26.651Z,5.56
2022-12-08T12:40:33.754Z,5.56
2022-12-08T12:44:27.608Z,5.26
2022-12-08T12:48:16.641Z,5.54
2022-12-08T12:51:44.732Z,5.54
2022-12-08T12:56:04.597Z,5.56
2022-12-08T13:00:03.560Z,5.47
2022-12-08T13:03:28.344Z,5.29
2022-12-08T13:06:51.124Z,5.33
2022-12-08T13:10:44.698Z,5.29
2022-12-08T13:14:08.250Z,5.25
2022-12-08T13:18:17.978Z,5.42
2022-12-08T13:22:30.954Z,5.37
2022-12-08T13:26:29.221Z,5.48
2022-12-08T13:29:47.903Z,5.50
2022-12-08T13:33:22.896Z,5.36
2022-12-08T13:37:10.959Z,5.34
2022-12-08T13:40:48.015Z,5.19
2022-12-08T13:57:58.478Z,5.11
2022-12-08T14:01:27.857Z,5.04
2022-12-08T14:09:47.155Z,5.21
2022-12-08T14:17:35.491Z,5.10
2022-12-08T14:21:24.013Z,5.06
2022-12-08T14:25:10.367Z,4.99
2022-12-08T14:28:56.568Z,5.04
2022-12-08T14:32:42.385Z,5.01
2022-12-08T14:36:20.846Z,4.84
2022-12-08T14:40:22.870Z,4.74
2022-12-08T14:43:46.268Z,4.72
2022-12-08T14:47:21.694Z,4.76
2022-12-08T14:50:51.053Z,4.76
2022-12-08T14:54:16.336Z,4.72
2022-12-08T14:57:44.161Z,4.74
2022-12-08T15:01:19.273Z,4.72
2022-12-08T15:05:03.325Z,4.64
2022-12-08T15:09:30.032Z,4.57
2022-12-08T15:13:16.547Z,4.62
2022-12-08T15:16:53.659Z,4.54
2022-12-08T15:20:39.966Z,4.61
2022-12-08T15:24:06.824Z,4.59
2022-12-08T15:27:49.881Z,4.63
2022-12-08T15:31:02.819Z,4.68
2022-12-08T15:34:20.786Z,4.72
2022-12-08T15:37:47.140Z,4.69
2022-12-08T15:41:14.857Z,4.68
2022-12-08T15:44:33.694Z,4.48
2022-12-08T15:47:47.089Z,4.63
2022-12-08T15:51:07.109Z,4.68
2022-12-08T15:54:30.369Z,4.77
2022-12-08T15:58:52.441Z,4.80
2022-12-08T16:01:28.106Z,4.70
2022-12-08T16:05:40.144Z,4.69
2022-12-08T16:08:45.181Z,4.71
2022-12-08T16:12:14.985Z,4.64
2022-12-08T16:19:14.866Z,4.27
2022-12-08T16:26:16.827Z,4.45
2022-12-08T16:29:35.195Z,4.52
2022-12-08T16:32:38.232Z,4.55
2022-12-08T16:35:42.566Z,4.51
2022-12-08T16:38:52.550Z,4.51
2022-12-08T16:42:39.518Z,4.45
2022-12-08T16:45:45.004Z,4.33
2022-12-08T16:49:08.975Z,4.35
2022-12-08T16:52:35.109Z,4.33
2022-12-08T16:55:51.886Z,4.48
2022-12-08T16:59:09.310Z,4.45
2022-12-08T17:02:26.011Z,4.34
2022-12-08T17:05:57.848Z,4.34
2022-12-08T17:09:18.703Z,4.29
2022-12-08T17:12:43.532Z,4.42
2022-12-08T17:16:02.769Z,4.41
2022-12-08T17:19:13.932Z,4.46
2022-12-08T17:22:16.914Z,4.47
2022-12-08T17:25:20.990Z,4.54
2022-12-08T17:28:59.043Z,4.57
2022-12-08T17:32:19.688Z,4.56
2022-12-08T17:35:39.479Z,4.46
2022-12-08T17:38:50.510Z,4.52
2022-12-08T17:42:05.960Z,4.49
2022-12-08T17:45:22.302Z,4.54
2022-12-08T17:48:31.401Z,4.58
2022-12-08T17:51:46.672Z,4.56
2022-12-08T17:54:54.300Z,4.48
2022-12-08T17:58:11.056Z,4.52
2022-12-08T18:01:15.811Z,4.53
2022-12-08T18:04:20.701Z,4.51
2022-12-08T18:07:26.846Z,4.62
2022-12-08T18:10:48.293Z,4.56
2022-12-08T18:14:17.817Z,4.60
2022-12-08T18:17:40.798Z,4.54
2022-12-08T18:21:05.014Z,4.59
2022-12-08T18:24:24.676Z,4.62
2022-12-08T18:27:43.187Z,4.55
2022-12-08T18:30:55.489Z,4.69
2022-12-08T18:34:11.951Z,4.68
2022-12-08T18:37:41.071Z,4.55
2022-12-08T18:41:17.019Z,4.58
2022-12-08T18:44:38.435Z,4.68
2022-12-08T18:48:02.429Z,4.64
2022-12-08T18:51:21.540Z,4.69
2022-12-08T18:54:58.164Z,4.76
2022-12-08T18:58:06.763Z,4.69
2022-12-08T19:01:22.704Z,4.73
2022-12-08T19:04:48.303Z,4.72
2022-12-08T19:08:00.423Z,4.70
2022-12-08T19:11:29.262Z,4.68
2022-12-08T19:14:51.644Z,4.75
2022-12-08T19:18:11.736Z,4.80
2022-12-08T19:21:40.127Z,4.75
2022-12-08T19:24:50.947Z,4.73
2022-12-08T19:28:00.503Z,4.77
2022-12-08T19:31:14.377Z,4.64
2022-12-08T19:34:19.294Z,4.72
2022-12-08T19:37:25.122Z,4.64
2022-12-08T19:40:47.299Z,4.63
2022-12-08T19:44:15.932Z,4.68
2022-12-08T19:47:30.915Z,4.58
2022-12-08T19:50:37.887Z,4.45
2022-12-08T19:53:49.162Z,4.35
2022-12-08T19:57:10.463Z,4.38
2022-12-08T20:00:28.613Z,4.32
2022-12-08T20:03:51.562Z,4.47
2022-12-08T20:07:14.565Z,4.54
2022-12-08T20:10:37.629Z,4.45
2022-12-08T20:13:54.540Z,4.42
2022-12-08T20:17:19.516Z,4.59
2022-12-08T20:20:42.482Z,4.45
2022-12-08T20:24:03.866Z,4.50
2022-12-08T20:27:31.804Z,4.53
2022-12-08T20:30:51.687Z,4.43
2022-12-08T20:34:08.562Z,4.42
2022-12-08T20:37:33.466Z,4.40
2022-12-08T20:40:51.651Z,4.29
2022-12-08T20:44:12.455Z,4.38
2022-12-08T20:47:39.416Z,4.21
2022-12-08T20:51:01.544Z,4.18
2022-12-08T20:54:11.500Z,4.25
2022-12-08T20:57:34.429Z,4.17
2022-12-08T21:01:00.850Z,4.12
2022-12-08T21:04:20.655Z,4.12
2022-12-08T21:07:47.568Z,4.14
2022-12-08T21:11:12.512Z,4.05
2022-12-08T21:14:30.679Z,4.02
2022-12-08T21:17:34.927Z,4.06
2022-12-08T21:20:43.424Z,4.16
2022-12-08T21:23:57.113Z,4.23
2022-12-08T21:27:07.024Z,4.10
2022-12-08T21:30:17.208Z,4.02
2022-12-08T21:33:21.273Z,4.22
2022-12-08T21:36:28.354Z,4.24
2022-12-08T21:39:43.889Z,4.28
2022-12-08T21:42:57.649Z,4.13
2022-12-08T21:46:00.837Z,4.06
2022-12-08T21:49:11.405Z,4.24
2022-12-08T21:52:34.369Z,3.99
2022-12-08T21:55:56.347Z,4.04
2022-12-08T21:59:23.315Z,4.13
2022-12-08T22:02:45.898Z,4.16
2022-12-08T22:05:55.272Z,4.30
2022-12-08T22:08:58.471Z,4.32
2022-12-08T22:12:17.952Z,4.38
2022-12-08T22:15:21.451Z,4.29
2022-12-08T22:18:45.465Z,4.37
2022-12-08T22:22:05.936Z,4.28
2022-12-08T22:25:31.781Z,4.22
2022-12-08T22:28:56.593Z,4.05
2022-12-08T22:32:28.100Z,3.99
2022-12-08T22:36:11.409Z,3.87
2022-12-08T22:39:37.093Z,3.83
2022-12-08T22:43:12.155Z,3.82
2022-12-08T22:46:28.198Z,3.88
2022-12-08T22:49:32.496Z,4.06
2022-12-08T22:52:36.631Z,4.16
2022-12-08T22:55:51.798Z,3.92
2022-12-08T22:58:59.136Z,3.90
2022-12-08T23:02:03.147Z,4.01
2022-12-08T23:05:10.524Z,4.26
2022-12-08T23:08:23.221Z,4.28
2022-12-08T23:11:39.416Z,4.30
2022-12-08T23:15:05.111Z,4.30
2022-12-08T23:18:29.008Z,4.05
2022-12-08T23:21:49.292Z,3.89
2022-12-08T23:25:12.152Z,3.82
2022-12-08T23:28:25.782Z,3.93
2022-12-08T23:31:33.441Z,4.00
2022-12-08T23:34:43.526Z,4.14
2022-12-08T23:37:54.847Z,3.99
2022-12-08T23:41:17.322Z,3.89
2022-12-08T23:44:45.109Z,4.00
2022-12-08T23:48:09.934Z,4.10
2022-12-08T23:51:26.195Z,4.04
2022-12-08T23:54:40.730Z,3.94
2022-12-08T23:58:05.128Z,3.89
